sensor_id;sensor_type;location;lat;lon;timestamp;P1;durP1;ratioP1;P2;durP2;ratioP2
37087;SDS011;23002;52.676;6.432;2024-02-21T00:00:57;10.10;;;4.03;;
37087;SDS011;23002;52.676;6.432;2024-02-21T00:03:24;9.60;;;4.38;;
37087;SDS011;23002;52.676;6.432;2024-02-21T00:05:51;8.85;;;3.65;;
37087;SDS011;23002;52.676;6.432;2024-02-21T00:08:18;9.65;;;3.50;;
37087;SDS011;23002;52.676;6.432;2024-02-21T00:10:45;8.20;;;3.67;;
37087;SDS011;23002;52.676;6.432;2024-02-21T00:13:13;7.43;;;3.28;;
37087;SDS011;23002;52.676;6.432;2024-02-21T00:15:40;8.60;;;3.17;;
37087;SDS011;23002;52.676;6.432;2024-02-21T00:18:07;8.40;;;3.13;;
37087;SDS011;23002;52.676;6.432;2024-02-21T00:20:34;9.27;;;2.92;;
37087;SDS011;23002;52.676;6.432;2024-02-21T00:23:02;10.50;;;2.90;;
37087;SDS011;23002;52.676;6.432;2024-02-21T00:25:29;10.68;;;2.60;;
37087;SDS011;23002;52.676;6.432;2024-02-21T00:27:56;9.23;;;3.08;;
37087;SDS011;23002;52.676;6.432;2024-02-21T00:30:23;12.88;;;3.83;;
37087;SDS011;23002;52.676;6.432;2024-02-21T00:32:51;9.68;;;2.90;;
37087;SDS011;23002;52.676;6.432;2024-02-21T00:35:18;10.82;;;2.53;;
37087;SDS011;23002;52.676;6.432;2024-02-21T00:37:45;8.80;;;2.70;;
37087;SDS011;23002;52.676;6.432;2024-02-21T00:40:12;10.43;;;4.10;;
37087;SDS011;23002;52.676;6.432;2024-02-21T00:42:46;10.88;;;2.35;;
37087;SDS011;23002;52.676;6.432;2024-02-21T00:45:14;8.70;;;2.22;;
37087;SDS011;23002;52.676;6.432;2024-02-21T00:47:41;10.85;;;2.60;;
37087;SDS011;23002;52.676;6.432;2024-02-21T00:50:08;6.35;;;2.70;;
37087;SDS011;23002;52.676;6.432;2024-02-21T00:52:36;12.25;;;2.83;;
37087;SDS011;23002;52.676;6.432;2024-02-21T00:55:04;8.95;;;2.60;;
37087;SDS011;23002;52.676;6.432;2024-02-21T00:57:31;12.02;;;2.83;;
37087;SDS011;23002;52.676;6.432;2024-02-21T00:59:58;9.82;;;2.47;;
37087;SDS011;23002;52.676;6.432;2024-02-21T01:02:25;7.60;;;2.83;;
37087;SDS011;23002;52.676;6.432;2024-02-21T01:04:52;10.88;;;2.88;;
37087;SDS011;23002;52.676;6.432;2024-02-21T01:07:20;9.40;;;2.50;;
37087;SDS011;23002;52.676;6.432;2024-02-21T01:09:47;6.95;;;2.70;;
37087;SDS011;23002;52.676;6.432;2024-02-21T01:12:14;10.52;;;3.40;;
37087;SDS011;23002;52.676;6.432;2024-02-21T01:14:42;6.90;;;2.55;;
37087;SDS011;23002;52.676;6.432;2024-02-21T01:17:09;12.35;;;3.10;;
37087;SDS011;23002;52.676;6.432;2024-02-21T01:19:36;7.47;;;3.05;;
37087;SDS011;23002;52.676;6.432;2024-02-21T01:22:03;14.85;;;3.47;;
37087;SDS011;23002;52.676;6.432;2024-02-21T01:24:30;16.90;;;3.22;;
37087;SDS011;23002;52.676;6.432;2024-02-21T01:26:58;10.63;;;3.00;;
37087;SDS011;23002;52.676;6.432;2024-02-21T01:29:25;11.75;;;2.80;;
37087;SDS011;23002;52.676;6.432;2024-02-21T01:31:52;7.15;;;2.83;;
37087;SDS011;23002;52.676;6.432;2024-02-21T01:34:20;9.55;;;3.40;;
37087;SDS011;23002;52.676;6.432;2024-02-21T01:36:47;11.57;;;2.92;;
37087;SDS011;23002;52.676;6.432;2024-02-21T01:39:14;11.15;;;3.10;;
37087;SDS011;23002;52.676;6.432;2024-02-21T01:41:41;13.75;;;3.55;;
37087;SDS011;23002;52.676;6.432;2024-02-21T01:44:08;10.68;;;2.85;;
37087;SDS011;23002;52.676;6.432;2024-02-21T01:46:36;9.80;;;3.28;;
37087;SDS011;23002;52.676;6.432;2024-02-21T01:49:03;12.48;;;3.60;;
37087;SDS011;23002;52.676;6.432;2024-02-21T01:51:31;11.93;;;3.78;;
37087;SDS011;23002;52.676;6.432;2024-02-21T01:53:58;16.23;;;3.58;;
37087;SDS011;23002;52.676;6.432;2024-02-21T01:56:25;15.07;;;3.50;;
37087;SDS011;23002;52.676;6.432;2024-02-21T01:58:53;14.70;;;3.97;;
37087;SDS011;23002;52.676;6.432;2024-02-21T02:01:21;10.07;;;3.58;;
37087;SDS011;23002;52.676;6.432;2024-02-21T02:03:48;11.00;;;3.90;;
37087;SDS011;23002;52.676;6.432;2024-02-21T02:06:16;10.02;;;4.30;;
37087;SDS011;23002;52.676;6.432;2024-02-21T02:08:43;7.55;;;3.55;;
37087;SDS011;23002;52.676;6.432;2024-02-21T02:11:12;17.48;;;4.47;;
37087;SDS011;23002;52.676;6.432;2024-02-21T02:13:40;12.57;;;3.65;;
37087;SDS011;23002;52.676;6.432;2024-02-21T02:16:07;10.02;;;4.00;;
37087;SDS011;23002;52.676;6.432;2024-02-21T02:18:34;13.18;;;3.97;;
37087;SDS011;23002;52.676;6.432;2024-02-21T02:21:03;14.43;;;4.32;;
37087;SDS011;23002;52.676;6.432;2024-02-21T02:23:32;16.23;;;4.88;;
37087;SDS011;23002;52.676;6.432;2024-02-21T02:25:59;16.45;;;4.85;;
37087;SDS011;23002;52.676;6.432;2024-02-21T02:28:29;12.63;;;3.90;;
37087;SDS011;23002;52.676;6.432;2024-02-21T02:30:57;19.65;;;4.70;;
37087;SDS011;23002;52.676;6.432;2024-02-21T02:33:24;12.75;;;4.75;;
37087;SDS011;23002;52.676;6.432;2024-02-21T02:35:52;17.33;;;5.32;;
37087;SDS011;23002;52.676;6.432;2024-02-21T02:38:19;13.63;;;4.53;;
37087;SDS011;23002;52.676;6.432;2024-02-21T02:40:46;14.45;;;5.15;;
37087;SDS011;23002;52.676;6.432;2024-02-21T02:43:13;20.38;;;5.15;;
37087;SDS011;23002;52.676;6.432;2024-02-21T02:45:40;14.40;;;5.32;;
37087;SDS011;23002;52.676;6.432;2024-02-21T02:48:07;15.50;;;4.88;;
37087;SDS011;23002;52.676;6.432;2024-02-21T02:50:35;13.90;;;4.93;;
37087;SDS011;23002;52.676;6.432;2024-02-21T02:53:02;21.85;;;5.32;;
37087;SDS011;23002;52.676;6.432;2024-02-21T02:55:29;15.75;;;5.57;;
37087;SDS011;23002;52.676;6.432;2024-02-21T02:57:57;15.75;;;5.50;;
37087;SDS011;23002;52.676;6.432;2024-02-21T03:00:24;16.95;;;5.75;;
37087;SDS011;23002;52.676;6.432;2024-02-21T03:02:51;15.40;;;5.18;;
37087;SDS011;23002;52.676;6.432;2024-02-21T03:05:19;13.35;;;5.45;;
37087;SDS011;23002;52.676;6.432;2024-02-21T03:07:47;18.75;;;5.57;;
37087;SDS011;23002;52.676;6.432;2024-02-21T03:10:15;15.07;;;4.93;;
37087;SDS011;23002;52.676;6.432;2024-02-21T03:12:44;16.23;;;6.03;;
37087;SDS011;23002;52.676;6.432;2024-02-21T03:15:12;16.25;;;5.32;;
37087;SDS011;23002;52.676;6.432;2024-02-21T03:17:39;23.65;;;5.47;;
37087;SDS011;23002;52.676;6.432;2024-02-21T03:20:07;16.55;;;4.57;;
37087;SDS011;23002;52.676;6.432;2024-02-21T03:22:37;19.40;;;5.32;;
37087;SDS011;23002;52.676;6.432;2024-02-21T03:25:04;23.55;;;5.50;;
37087;SDS011;23002;52.676;6.432;2024-02-21T03:27:32;14.65;;;5.43;;
37087;SDS011;23002;52.676;6.432;2024-02-21T03:30:00;17.48;;;5.43;;
37087;SDS011;23002;52.676;6.432;2024-02-21T03:32:27;24.83;;;5.70;;
37087;SDS011;23002;52.676;6.432;2024-02-21T03:34:55;23.13;;;5.63;;
37087;SDS011;23002;52.676;6.432;2024-02-21T03:37:22;16.52;;;5.82;;
37087;SDS011;23002;52.676;6.432;2024-02-21T03:39:49;14.00;;;5.65;;
37087;SDS011;23002;52.676;6.432;2024-02-21T03:42:16;17.33;;;5.43;;
37087;SDS011;23002;52.676;6.432;2024-02-21T03:44:43;25.42;;;6.03;;
37087;SDS011;23002;52.676;6.432;2024-02-21T03:47:11;20.48;;;5.88;;
37087;SDS011;23002;52.676;6.432;2024-02-21T03:49:38;17.67;;;5.22;;
37087;SDS011;23002;52.676;6.432;2024-02-21T03:52:06;17.55;;;5.88;;
37087;SDS011;23002;52.676;6.432;2024-02-21T03:54:34;15.77;;;5.80;;
37087;SDS011;23002;52.676;6.432;2024-02-21T03:57:01;19.90;;;6.38;;
37087;SDS011;23002;52.676;6.432;2024-02-21T03:59:28;15.02;;;5.20;;
37087;SDS011;23002;52.676;6.432;2024-02-21T04:01:56;18.13;;;5.07;;
37087;SDS011;23002;52.676;6.432;2024-02-21T04:04:23;16.75;;;5.80;;
37087;SDS011;23002;52.676;6.432;2024-02-21T04:06:51;16.00;;;5.60;;
37087;SDS011;23002;52.676;6.432;2024-02-21T04:09:18;21.13;;;6.85;;
37087;SDS011;23002;52.676;6.432;2024-02-21T04:11:45;14.23;;;4.80;;
37087;SDS011;23002;52.676;6.432;2024-02-21T04:14:12;18.27;;;6.22;;
37087;SDS011;23002;52.676;6.432;2024-02-21T04:16:39;19.95;;;5.47;;
37087;SDS011;23002;52.676;6.432;2024-02-21T04:19:07;14.75;;;5.20;;
37087;SDS011;23002;52.676;6.432;2024-02-21T04:21:34;15.85;;;5.40;;
37087;SDS011;23002;52.676;6.432;2024-02-21T04:24:02;19.75;;;5.35;;
37087;SDS011;23002;52.676;6.432;2024-02-21T04:26:32;24.15;;;5.82;;
37087;SDS011;23002;52.676;6.432;2024-02-21T04:28:59;17.58;;;4.95;;
37087;SDS011;23002;52.676;6.432;2024-02-21T04:31:27;13.43;;;5.25;;
37087;SDS011;23002;52.676;6.432;2024-02-21T04:33:54;20.35;;;4.90;;
37087;SDS011;23002;52.676;6.432;2024-02-21T04:36:21;12.80;;;5.03;;
37087;SDS011;23002;52.676;6.432;2024-02-21T04:38:50;16.92;;;5.30;;
37087;SDS011;23002;52.676;6.432;2024-02-21T04:41:17;19.70;;;5.13;;
37087;SDS011;23002;52.676;6.432;2024-02-21T04:43:45;27.65;;;6.43;;
37087;SDS011;23002;52.676;6.432;2024-02-21T04:46:14;17.88;;;5.00;;
37087;SDS011;23002;52.676;6.432;2024-02-21T04:48:42;18.98;;;5.43;;
37087;SDS011;23002;52.676;6.432;2024-02-21T04:51:09;15.77;;;4.72;;
37087;SDS011;23002;52.676;6.432;2024-02-21T04:53:36;16.50;;;4.57;;
37087;SDS011;23002;52.676;6.432;2024-02-21T04:56:04;14.00;;;4.57;;
37087;SDS011;23002;52.676;6.432;2024-02-21T04:58:31;14.00;;;4.70;;
37087;SDS011;23002;52.676;6.432;2024-02-21T05:00:58;20.48;;;5.18;;
37087;SDS011;23002;52.676;6.432;2024-02-21T05:03:25;14.13;;;4.22;;
37087;SDS011;23002;52.676;6.432;2024-02-21T05:05:53;21.65;;;5.70;;
37087;SDS011;23002;52.676;6.432;2024-02-21T05:08:20;14.60;;;4.32;;
37087;SDS011;23002;52.676;6.432;2024-02-21T05:10:47;13.88;;;3.95;;
37087;SDS011;23002;52.676;6.432;2024-02-21T05:13:14;11.98;;;4.55;;
37087;SDS011;23002;52.676;6.432;2024-02-21T05:15:42;16.60;;;5.18;;
37087;SDS011;23002;52.676;6.432;2024-02-21T05:18:09;14.57;;;4.80;;
37087;SDS011;23002;52.676;6.432;2024-02-21T05:20:36;15.88;;;4.97;;
37087;SDS011;23002;52.676;6.432;2024-02-21T05:23:03;18.38;;;4.60;;
37087;SDS011;23002;52.676;6.432;2024-02-21T05:25:31;15.75;;;4.05;;
37087;SDS011;23002;52.676;6.432;2024-02-21T05:27:58;13.90;;;4.50;;
37087;SDS011;23002;52.676;6.432;2024-02-21T05:30:28;20.35;;;5.32;;
37087;SDS011;23002;52.676;6.432;2024-02-21T05:32:56;17.50;;;4.80;;
37087;SDS011;23002;52.676;6.432;2024-02-21T05:35:27;20.00;;;4.57;;
37087;SDS011;23002;52.676;6.432;2024-02-21T05:37:54;14.57;;;4.63;;
37087;SDS011;23002;52.676;6.432;2024-02-21T05:40:22;17.13;;;4.50;;
37087;SDS011;23002;52.676;6.432;2024-02-21T05:42:49;17.52;;;4.60;;
37087;SDS011;23002;52.676;6.432;2024-02-21T05:45:18;15.57;;;5.78;;
37087;SDS011;23002;52.676;6.432;2024-02-21T05:47:45;13.52;;;4.43;;
37087;SDS011;23002;52.676;6.432;2024-02-21T05:50:12;10.98;;;5.07;;
37087;SDS011;23002;52.676;6.432;2024-02-21T05:52:40;21.17;;;5.75;;
37087;SDS011;23002;52.676;6.432;2024-02-21T05:55:07;19.75;;;4.88;;
37087;SDS011;23002;52.676;6.432;2024-02-21T05:57:37;15.68;;;5.38;;
37087;SDS011;23002;52.676;6.432;2024-02-21T06:00:05;15.48;;;6.60;;
37087;SDS011;23002;52.676;6.432;2024-02-21T06:02:32;15.73;;;6.93;;
37087;SDS011;23002;52.676;6.432;2024-02-21T06:05:00;17.65;;;6.35;;
37087;SDS011;23002;52.676;6.432;2024-02-21T06:07:27;19.13;;;7.57;;
37087;SDS011;23002;52.676;6.432;2024-02-21T06:09:54;17.58;;;7.50;;
37087;SDS011;23002;52.676;6.432;2024-02-21T06:12:21;14.50;;;7.18;;
37087;SDS011;23002;52.676;6.432;2024-02-21T06:14:49;15.98;;;7.03;;
37087;SDS011;23002;52.676;6.432;2024-02-21T06:17:16;16.42;;;6.72;;
37087;SDS011;23002;52.676;6.432;2024-02-21T06:19:43;16.83;;;7.63;;
37087;SDS011;23002;52.676;6.432;2024-02-21T06:22:11;17.25;;;7.28;;
37087;SDS011;23002;52.676;6.432;2024-02-21T06:24:38;16.55;;;7.47;;
37087;SDS011;23002;52.676;6.432;2024-02-21T06:27:06;17.48;;;7.47;;
37087;SDS011;23002;52.676;6.432;2024-02-21T06:29:36;19.10;;;7.35;;
37087;SDS011;23002;52.676;6.432;2024-02-21T06:32:03;17.27;;;7.53;;
37087;SDS011;23002;52.676;6.432;2024-02-21T06:34:31;17.52;;;7.43;;
37087;SDS011;23002;52.676;6.432;2024-02-21T06:37:00;20.67;;;7.15;;
37087;SDS011;23002;52.676;6.432;2024-02-21T06:39:27;23.08;;;9.00;;
37087;SDS011;23002;52.676;6.432;2024-02-21T06:41:55;24.00;;;7.97;;
37087;SDS011;23002;52.676;6.432;2024-02-21T06:44:28;17.42;;;8.38;;
37087;SDS011;23002;52.676;6.432;2024-02-21T06:46:55;15.90;;;7.30;;
37087;SDS011;23002;52.676;6.432;2024-02-21T06:49:25;21.17;;;7.65;;
37087;SDS011;23002;52.676;6.432;2024-02-21T06:51:52;17.40;;;8.45;;
37087;SDS011;23002;52.676;6.432;2024-02-21T06:54:19;27.83;;;8.55;;
37087;SDS011;23002;52.676;6.432;2024-02-21T06:56:46;17.75;;;7.78;;
37087;SDS011;23002;52.676;6.432;2024-02-21T06:59:13;23.50;;;7.68;;
37087;SDS011;23002;52.676;6.432;2024-02-21T07:01:46;18.73;;;7.57;;
37087;SDS011;23002;52.676;6.432;2024-02-21T07:04:13;18.40;;;7.43;;
37087;SDS011;23002;52.676;6.432;2024-02-21T07:06:41;17.30;;;7.32;;
37087;SDS011;23002;52.676;6.432;2024-02-21T07:09:08;16.95;;;6.85;;
37087;SDS011;23002;52.676;6.432;2024-02-21T07:11:35;17.20;;;7.10;;
37087;SDS011;23002;52.676;6.432;2024-02-21T07:14:03;19.13;;;7.75;;
37087;SDS011;23002;52.676;6.432;2024-02-21T07:16:30;16.02;;;7.38;;
37087;SDS011;23002;52.676;6.432;2024-02-21T07:18:59;16.92;;;7.50;;
37087;SDS011;23002;52.676;6.432;2024-02-21T07:21:26;19.45;;;8.00;;
37087;SDS011;23002;52.676;6.432;2024-02-21T07:23:53;15.93;;;6.90;;
37087;SDS011;23002;52.676;6.432;2024-02-21T07:26:21;14.90;;;6.72;;
37087;SDS011;23002;52.676;6.432;2024-02-21T07:28:48;16.48;;;6.82;;
37087;SDS011;23002;52.676;6.432;2024-02-21T07:31:15;16.83;;;7.55;;
37087;SDS011;23002;52.676;6.432;2024-02-21T07:33:43;13.20;;;6.50;;
37087;SDS011;23002;52.676;6.432;2024-02-21T07:36:11;16.13;;;7.28;;
37087;SDS011;23002;52.676;6.432;2024-02-21T07:38:38;18.73;;;8.57;;
37087;SDS011;23002;52.676;6.432;2024-02-21T07:41:06;16.88;;;8.07;;
37087;SDS011;23002;52.676;6.432;2024-02-21T07:43:33;18.85;;;8.55;;
37087;SDS011;23002;52.676;6.432;2024-02-21T07:46:00;17.60;;;7.40;;
37087;SDS011;23002;52.676;6.432;2024-02-21T07:48:27;18.73;;;7.90;;
37087;SDS011;23002;52.676;6.432;2024-02-21T07:50:58;15.38;;;7.55;;
37087;SDS011;23002;52.676;6.432;2024-02-21T07:53:25;20.75;;;9.32;;
37087;SDS011;23002;52.676;6.432;2024-02-21T07:55:52;17.63;;;8.93;;
37087;SDS011;23002;52.676;6.432;2024-02-21T07:58:20;17.63;;;9.45;;
37087;SDS011;23002;52.676;6.432;2024-02-21T08:00:47;18.58;;;8.80;;
37087;SDS011;23002;52.676;6.432;2024-02-21T08:03:14;21.98;;;10.38;;
37087;SDS011;23002;52.676;6.432;2024-02-21T08:05:44;17.10;;;9.32;;
37087;SDS011;23002;52.676;6.432;2024-02-21T08:08:11;14.63;;;8.75;;
37087;SDS011;23002;52.676;6.432;2024-02-21T08:10:44;19.25;;;9.45;;
37087;SDS011;23002;52.676;6.432;2024-02-21T08:13:12;18.75;;;9.15;;
37087;SDS011;23002;52.676;6.432;2024-02-21T08:15:39;22.45;;;9.80;;
37087;SDS011;23002;52.676;6.432;2024-02-21T08:18:08;17.67;;;9.30;;
37087;SDS011;23002;52.676;6.432;2024-02-21T08:20:35;23.48;;;9.63;;
37087;SDS011;23002;52.676;6.432;2024-02-21T08:23:02;19.83;;;9.65;;
37087;SDS011;23002;52.676;6.432;2024-02-21T08:25:30;19.60;;;9.13;;
37087;SDS011;23002;52.676;6.432;2024-02-21T08:27:58;18.30;;;9.63;;
37087;SDS011;23002;52.676;6.432;2024-02-21T08:30:25;18.77;;;9.80;;
37087;SDS011;23002;52.676;6.432;2024-02-21T08:32:53;17.75;;;9.30;;
37087;SDS011;23002;52.676;6.432;2024-02-21T08:35:21;18.60;;;9.13;;
37087;SDS011;23002;52.676;6.432;2024-02-21T08:37:51;23.58;;;9.68;;
37087;SDS011;23002;52.676;6.432;2024-02-21T08:40:19;18.67;;;9.55;;
37087;SDS011;23002;52.676;6.432;2024-02-21T08:42:47;19.60;;;9.35;;
37087;SDS011;23002;52.676;6.432;2024-02-21T08:45:16;19.85;;;9.65;;
37087;SDS011;23002;52.676;6.432;2024-02-21T08:47:43;24.15;;;10.35;;
37087;SDS011;23002;52.676;6.432;2024-02-21T08:50:11;19.50;;;9.75;;
37087;SDS011;23002;52.676;6.432;2024-02-21T08:52:53;24.10;;;10.00;;
37087;SDS011;23002;52.676;6.432;2024-02-21T08:55:21;24.08;;;10.40;;
37087;SDS011;23002;52.676;6.432;2024-02-21T08:57:48;19.85;;;10.07;;
37087;SDS011;23002;52.676;6.432;2024-02-21T09:00:16;19.85;;;9.82;;
37087;SDS011;23002;52.676;6.432;2024-02-21T09:02:43;21.88;;;9.48;;
37087;SDS011;23002;52.676;6.432;2024-02-21T09:05:11;24.45;;;9.60;;
37087;SDS011;23002;52.676;6.432;2024-02-21T09:07:38;25.67;;;10.40;;
37087;SDS011;23002;52.676;6.432;2024-02-21T09:10:06;17.50;;;8.63;;
37087;SDS011;23002;52.676;6.432;2024-02-21T09:12:33;20.27;;;9.25;;
37087;SDS011;23002;52.676;6.432;2024-02-21T09:15:00;18.90;;;9.60;;
37087;SDS011;23002;52.676;6.432;2024-02-21T09:17:27;20.63;;;9.98;;
37087;SDS011;23002;52.676;6.432;2024-02-21T09:19:56;18.67;;;8.77;;
37087;SDS011;23002;52.676;6.432;2024-02-21T09:22:26;21.98;;;9.52;;
37087;SDS011;23002;52.676;6.432;2024-02-21T09:24:53;16.10;;;9.07;;
37087;SDS011;23002;52.676;6.432;2024-02-21T09:27:21;18.90;;;8.98;;
37087;SDS011;23002;52.676;6.432;2024-02-21T09:29:48;20.67;;;9.48;;
37087;SDS011;23002;52.676;6.432;2024-02-21T09:32:16;19.25;;;9.05;;
37087;SDS011;23002;52.676;6.432;2024-02-21T09:34:43;17.88;;;8.25;;
37087;SDS011;23002;52.676;6.432;2024-02-21T09:37:11;16.48;;;8.07;;
37087;SDS011;23002;52.676;6.432;2024-02-21T09:39:38;15.45;;;8.00;;
37087;SDS011;23002;52.676;6.432;2024-02-21T09:42:06;14.10;;;7.82;;
37087;SDS011;23002;52.676;6.432;2024-02-21T09:44:36;18.65;;;7.70;;
37087;SDS011;23002;52.676;6.432;2024-02-21T09:47:07;13.85;;;7.32;;
37087;SDS011;23002;52.676;6.432;2024-02-21T09:49:38;17.40;;;7.18;;
37087;SDS011;23002;52.676;6.432;2024-02-21T09:52:07;17.13;;;7.18;;
37087;SDS011;23002;52.676;6.432;2024-02-21T09:54:35;14.30;;;7.78;;
37087;SDS011;23002;52.676;6.432;2024-02-21T09:57:05;16.05;;;6.90;;
37087;SDS011;23002;52.676;6.432;2024-02-21T09:59:33;11.30;;;6.35;;
37087;SDS011;23002;52.676;6.432;2024-02-21T10:02:00;14.57;;;6.82;;
37087;SDS011;23002;52.676;6.432;2024-02-21T10:04:29;11.63;;;6.10;;
37087;SDS011;23002;52.676;6.432;2024-02-21T10:06:56;16.17;;;6.70;;
37087;SDS011;23002;52.676;6.432;2024-02-21T10:09:24;15.57;;;6.00;;
37087;SDS011;23002;52.676;6.432;2024-02-21T10:11:54;12.23;;;5.90;;
37087;SDS011;23002;52.676;6.432;2024-02-21T10:14:22;13.60;;;6.53;;
37087;SDS011;23002;52.676;6.432;2024-02-21T10:16:56;14.48;;;5.85;;
37087;SDS011;23002;52.676;6.432;2024-02-21T10:19:25;12.63;;;6.03;;
37087;SDS011;23002;52.676;6.432;2024-02-21T10:21:59;14.10;;;6.07;;
37087;SDS011;23002;52.676;6.432;2024-02-21T10:24:27;17.27;;;6.22;;
37087;SDS011;23002;52.676;6.432;2024-02-21T10:27:02;13.48;;;5.40;;
37087;SDS011;23002;52.676;6.432;2024-02-21T10:29:33;12.02;;;5.55;;
37087;SDS011;23002;52.676;6.432;2024-02-21T10:32:07;13.80;;;5.32;;
37087;SDS011;23002;52.676;6.432;2024-02-21T10:34:35;12.88;;;5.22;;
37087;SDS011;23002;52.676;6.432;2024-02-21T10:37:04;9.95;;;5.03;;
37087;SDS011;23002;52.676;6.432;2024-02-21T10:39:31;14.73;;;5.25;;
37087;SDS011;23002;52.676;6.432;2024-02-21T10:42:00;8.45;;;5.13;;
37087;SDS011;23002;52.676;6.432;2024-02-21T10:44:30;13.90;;;5.78;;
37087;SDS011;23002;52.676;6.432;2024-02-21T10:46:58;10.98;;;5.18;;
37087;SDS011;23002;52.676;6.432;2024-02-21T10:49:26;10.85;;;4.78;;
37087;SDS011;23002;52.676;6.432;2024-02-21T10:57:16;11.93;;;4.70;;
37087;SDS011;23002;52.676;6.432;2024-02-21T10:59:44;8.98;;;4.88;;
37087;SDS011;23002;52.676;6.432;2024-02-21T11:02:12;12.88;;;5.65;;
37087;SDS011;23002;52.676;6.432;2024-02-21T11:04:39;11.25;;;4.97;;
37087;SDS011;23002;52.676;6.432;2024-02-21T11:07:07;10.15;;;5.22;;
37087;SDS011;23002;52.676;6.432;2024-02-21T11:09:37;9.35;;;4.80;;
37087;SDS011;23002;52.676;6.432;2024-02-21T11:12:05;11.48;;;5.00;;
37087;SDS011;23002;52.676;6.432;2024-02-21T11:14:33;11.43;;;5.50;;
37087;SDS011;23002;52.676;6.432;2024-02-21T11:17:15;10.73;;;5.45;;
37087;SDS011;23002;52.676;6.432;2024-02-21T11:19:43;11.15;;;5.25;;
37087;SDS011;23002;52.676;6.432;2024-02-21T11:22:15;14.65;;;5.40;;
37087;SDS011;23002;52.676;6.432;2024-02-21T11:24:46;11.98;;;5.53;;
37087;SDS011;23002;52.676;6.432;2024-02-21T11:27:20;9.95;;;4.75;;
37087;SDS011;23002;52.676;6.432;2024-02-21T11:29:48;11.18;;;4.63;;
37087;SDS011;23002;52.676;6.432;2024-02-21T11:32:19;9.88;;;5.72;;
37087;SDS011;23002;52.676;6.432;2024-02-21T11:34:56;7.72;;;4.28;;
37087;SDS011;23002;52.676;6.432;2024-02-21T11:37:29;10.27;;;4.85;;
37087;SDS011;23002;52.676;6.432;2024-02-21T11:39:56;9.10;;;4.75;;
37087;SDS011;23002;52.676;6.432;2024-02-21T11:42:26;10.45;;;4.60;;
37087;SDS011;23002;52.676;6.432;2024-02-21T11:44:55;9.77;;;4.50;;
37087;SDS011;23002;52.676;6.432;2024-02-21T11:47:23;8.52;;;5.00;;
37087;SDS011;23002;52.676;6.432;2024-02-21T11:49:51;7.57;;;4.10;;
37087;SDS011;23002;52.676;6.432;2024-02-21T11:52:22;9.43;;;4.20;;
37087;SDS011;23002;52.676;6.432;2024-02-21T11:54:52;8.50;;;4.85;;
37087;SDS011;23002;52.676;6.432;2024-02-21T11:57:20;9.38;;;4.80;;
37087;SDS011;23002;52.676;6.432;2024-02-21T11:59:48;8.88;;;3.75;;
37087;SDS011;23002;52.676;6.432;2024-02-21T12:02:18;8.15;;;3.95;;
37087;SDS011;23002;52.676;6.432;2024-02-21T12:04:46;7.57;;;3.42;;
37087;SDS011;23002;52.676;6.432;2024-02-21T12:07:15;8.90;;;4.30;;
37087;SDS011;23002;52.676;6.432;2024-02-21T12:09:44;8.25;;;3.95;;
37087;SDS011;23002;52.676;6.432;2024-02-21T12:12:11;7.65;;;3.65;;
37087;SDS011;23002;52.676;6.432;2024-02-21T12:14:38;8.18;;;4.35;;
37087;SDS011;23002;52.676;6.432;2024-02-21T12:17:05;8.50;;;3.35;;
37087;SDS011;23002;52.676;6.432;2024-02-21T12:19:33;8.77;;;3.90;;
37087;SDS011;23002;52.676;6.432;2024-02-21T12:22:01;6.90;;;3.95;;
37087;SDS011;23002;52.676;6.432;2024-02-21T12:24:32;7.93;;;3.53;;
37087;SDS011;23002;52.676;6.432;2024-02-21T12:27:00;9.27;;;3.83;;
37087;SDS011;23002;52.676;6.432;2024-02-21T12:29:30;6.35;;;2.83;;
37087;SDS011;23002;52.676;6.432;2024-02-21T12:31:57;7.63;;;3.38;;
37087;SDS011;23002;52.676;6.432;2024-02-21T12:34:24;6.45;;;2.75;;
37087;SDS011;23002;52.676;6.432;2024-02-21T12:37:10;5.40;;;2.97;;
37087;SDS011;23002;52.676;6.432;2024-02-21T12:39:39;7.80;;;2.78;;
37087;SDS011;23002;52.676;6.432;2024-02-21T12:42:07;6.07;;;2.78;;
37087;SDS011;23002;52.676;6.432;2024-02-21T12:44:37;5.85;;;3.40;;
37087;SDS011;23002;52.676;6.432;2024-02-21T12:47:04;5.25;;;2.75;;
37087;SDS011;23002;52.676;6.432;2024-02-21T12:49:32;6.50;;;2.95;;
37087;SDS011;23002;52.676;6.432;2024-02-21T12:51:59;5.72;;;3.15;;
37087;SDS011;23002;52.676;6.432;2024-02-21T12:54:26;6.82;;;3.33;;
37087;SDS011;23002;52.676;6.432;2024-02-21T12:56:53;6.55;;;3.42;;
37087;SDS011;23002;52.676;6.432;2024-02-21T12:59:21;6.72;;;3.28;;
37087;SDS011;23002;52.676;6.432;2024-02-21T13:01:48;5.38;;;3.10;;
37087;SDS011;23002;52.676;6.432;2024-02-21T13:04:15;6.35;;;3.45;;
37087;SDS011;23002;52.676;6.432;2024-02-21T13:06:42;6.50;;;3.40;;
37087;SDS011;23002;52.676;6.432;2024-02-21T13:09:11;6.43;;;3.72;;
37087;SDS011;23002;52.676;6.432;2024-02-21T13:11:39;5.43;;;3.08;;
37087;SDS011;23002;52.676;6.432;2024-02-21T13:14:07;10.40;;;3.63;;
37087;SDS011;23002;52.676;6.432;2024-02-21T13:16:35;8.13;;;3.40;;
37087;SDS011;23002;52.676;6.432;2024-02-21T13:19:06;5.45;;;3.35;;
37087;SDS011;23002;52.676;6.432;2024-02-21T13:21:49;6.72;;;2.95;;
37087;SDS011;23002;52.676;6.432;2024-02-21T13:24:18;6.60;;;3.20;;
37087;SDS011;23002;52.676;6.432;2024-02-21T13:26:45;6.75;;;3.67;;
37087;SDS011;23002;52.676;6.432;2024-02-21T13:29:12;7.97;;;3.50;;
37087;SDS011;23002;52.676;6.432;2024-02-21T13:31:40;8.45;;;3.25;;
37087;SDS011;23002;52.676;6.432;2024-02-21T13:34:07;6.93;;;3.60;;
37087;SDS011;23002;52.676;6.432;2024-02-21T13:36:37;6.30;;;3.80;;
37087;SDS011;23002;52.676;6.432;2024-02-21T13:39:05;7.85;;;3.40;;
37087;SDS011;23002;52.676;6.432;2024-02-21T13:41:33;9.02;;;3.20;;
37087;SDS011;23002;52.676;6.432;2024-02-21T13:44:01;9.55;;;3.97;;
37087;SDS011;23002;52.676;6.432;2024-02-21T13:46:28;9.80;;;3.65;;
37087;SDS011;23002;52.676;6.432;2024-02-21T13:49:03;5.50;;;3.35;;
37087;SDS011;23002;52.676;6.432;2024-02-21T13:51:32;6.10;;;2.65;;
37087;SDS011;23002;52.676;6.432;2024-02-21T13:53:59;5.85;;;3.30;;
37087;SDS011;23002;52.676;6.432;2024-02-21T13:56:26;7.45;;;3.97;;
37087;SDS011;23002;52.676;6.432;2024-02-21T13:58:54;5.93;;;3.58;;
37087;SDS011;23002;52.676;6.432;2024-02-21T14:01:21;8.43;;;3.50;;
37087;SDS011;23002;52.676;6.432;2024-02-21T14:03:48;8.20;;;3.38;;
37087;SDS011;23002;52.676;6.432;2024-02-21T14:06:15;9.20;;;3.72;;
37087;SDS011;23002;52.676;6.432;2024-02-21T14:08:43;8.35;;;3.50;;
37087;SDS011;23002;52.676;6.432;2024-02-21T14:11:10;6.25;;;3.17;;
37087;SDS011;23002;52.676;6.432;2024-02-21T14:13:38;8.23;;;3.25;;
37087;SDS011;23002;52.676;6.432;2024-02-21T14:16:09;6.10;;;2.95;;
37087;SDS011;23002;52.676;6.432;2024-02-21T14:18:38;6.65;;;2.90;;
37087;SDS011;23002;52.676;6.432;2024-02-21T14:21:07;9.15;;;3.17;;
37087;SDS011;23002;52.676;6.432;2024-02-21T14:23:37;7.72;;;3.40;;
37087;SDS011;23002;52.676;6.432;2024-02-21T14:26:04;8.30;;;3.25;;
37087;SDS011;23002;52.676;6.432;2024-02-21T14:28:32;10.05;;;3.72;;
37087;SDS011;23002;52.676;6.432;2024-02-21T14:31:00;10.27;;;3.78;;
37087;SDS011;23002;52.676;6.432;2024-02-21T14:33:27;5.68;;;3.00;;
37087;SDS011;23002;52.676;6.432;2024-02-21T14:35:55;9.30;;;4.03;;
37087;SDS011;23002;52.676;6.432;2024-02-21T14:38:22;6.38;;;3.05;;
37087;SDS011;23002;52.676;6.432;2024-02-21T14:40:50;8.65;;;3.60;;
37087;SDS011;23002;52.676;6.432;2024-02-21T14:43:17;7.60;;;2.92;;
37087;SDS011;23002;52.676;6.432;2024-02-21T14:45:44;6.18;;;3.13;;
37087;SDS011;23002;52.676;6.432;2024-02-21T14:48:14;7.18;;;3.53;;